Time;durP1;ratioP1;P1;durP2;ratioP2;P2;SDS_P1;SDS_P2;PMS_P1;PMS_P2;Temp;Humidity;BMP_temperature;BMP_pressure;BME280_temperature;BME280_humidity;BME280_pressure;Samples;Min_cycle;Max_cycle;Signal;HPM_P1;HPM_P2
2022/01/21 00:02:24;;;;;;;;;;;;;;;4.36;60.98;102270.22;5005119;28;6928;-71
2022/01/21 00:04:50;;;;;;;;;;;;;;;4.42;60.06;102259.81;5014512;28;7088;-71
2022/01/21 00:07:15;;;;;;;;;;;;;;;4.42;60.68;102253.09;5009517;28;6804;-71
2022/01/21 00:09:46;;;;;;;;;;;;;;;4.44;60.74;102238.00;5027679;28;6876;-71
2022/01/21 00:12:11;;;;;;;;;;;;;;;4.42;59.48;102239.50;5039582;28;6895;-71
2022/01/21 00:14:38;;;;;;;;;;;;;;;4.41;59.78;102236.06;5002398;28;6890;-70
2022/01/21 00:17:03;;;;;;;;;;;;;;;4.39;59.40;102227.38;5020543;28;6824;-70
2022/01/21 00:19:36;;;;;;;;;;;;;;;4.37;60.18;102230.53;5035698;28;7117;-70
2022/01/21 00:30:09;;;;;;;;;;;;;;;4.32;59.82;102232.59;5023618;28;6974;-70
2022/01/21 00:30:25;;;;;;;;;;;;;;;4.28;59.98;102246.59;5032841;28;6997;-70
2022/01/21 00:32:51;;;;;;;;;;;;;;;4.31;60.08;102252.00;4981658;28;7261;-71
2022/01/21 00:35:19;;;;;;;;;;;;;;;4.36;61.00;102254.13;5034944;28;6796;-71
2022/01/21 00:37:46;;;;;;;;;;;;;;;4.42;61.29;102247.09;5020808;28;6817;-71
2022/01/21 00:40:18;;;;;;;;;;;;;;;4.51;61.11;102254.78;5017067;28;7351;-71
2022/01/21 00:45:15;;;;;;;;;;;;;;;4.71;60.41;102244.09;5034310;28;6811;-71
2022/01/21 00:47:42;;;;;;;;;;;;;;;4.78;60.67;102236.38;5003031;28;7722;-71
2022/01/21 00:50:10;;;;;;;;;;;;;;;4.84;60.58;102238.63;5011982;28;7394;-71
2022/01/21 00:52:35;;;;;;;;;;;;;;;4.91;60.66;102237.59;5036034;28;6966;-71
2022/01/21 00:55:07;;;;;;;;;;;;;;;4.95;60.78;102244.78;5020584;28;6983;-71
2022/01/21 00:57:32;;;;;;;;;;;;;;;5.00;60.05;102251.22;5011975;28;6880;-71
2022/01/21 00:59:58;;;;;;;;;;;;;;;5.03;60.64;102251.56;5036837;28;6791;-71
2022/01/21 01:02:24;;;;;;;;;;;;;;;5.04;59.73;102255.88;5018838;28;6837;-71
2022/01/21 01:05:11;;;;;;;;;;;;;;;5.05;59.58;102256.75;5005464;28;6824;-71
2022/01/21 01:07:38;;;;;;;;;;;;;;;5.04;59.72;102260.06;5016139;28;7006;-71
2022/01/21 01:10:42;;;;;;;;;;;;;;;5.00;59.81;102254.69;5046367;28;7365;-71
2022/01/21 01:22:17;;;;;;;;;;;;;;;4.87;60.31;102266.88;5011729;28;6996;-70
2022/01/21 01:29:58;;;;;;;;;;;;;;;4.84;59.74;102254.78;5022578;28;6828;-71
2022/01/21 01:32:25;;;;;;;;;;;;;;;4.89;59.96;102254.34;5018022;28;7236;-70
2022/01/21 01:34:51;;;;;;;;;;;;;;;4.92;60.55;102254.63;5003139;28;7876;-70
2022/01/21 01:37:34;;;;;;;;;;;;;;;4.96;59.91;102246.59;5018362;28;6840;-71
2022/01/21 01:40:19;;;;;;;;;;;;;;;4.98;59.87;102246.00;5032933;28;6961;-71
2022/01/21 01:50:51;;;;;;;;;;;;;;;4.92;60.00;102240.28;5014580;28;6907;-71
2022/01/21 01:53:25;;;;;;;;;;;;;;;4.96;60.44;102251.66;5013801;28;7063;-71
2022/01/21 01:55:52;;;;;;;;;;;;;;;5.02;60.57;102253.94;5012867;28;6888;-71
2022/01/21 01:58:17;;;;;;;;;;;;;;;5.07;60.07;102247.66;4991174;28;6799;-71
2022/01/21 02:00:44;;;;;;;;;;;;;;;5.11;60.31;102248.09;5019839;28;6883;-71
2022/01/21 02:03:16;;;;;;;;;;;;;;;5.17;60.57;102252.00;4992246;28;6943;-71
2022/01/21 02:05:43;;;;;;;;;;;;;;;5.22;59.95;102246.63;5034186;28;6819;-71
2022/01/21 02:08:11;;;;;;;;;;;;;;;5.27;59.68;102247.09;5032246;28;6815;-71
2022/01/21 02:10:39;;;;;;;;;;;;;;;5.31;59.70;102239.03;5013264;28;7329;-71
2022/01/21 02:13:18;;;;;;;;;;;;;;;5.34;59.76;102231.72;4995569;28;6820;-71
2022/01/21 02:15:44;;;;;;;;;;;;;;;5.34;60.02;102239.34;5019379;28;6911;-71
2022/01/21 02:23:38;;;;;;;;;;;;;;;5.14;59.18;102250.97;5039338;28;8093;-70
2022/01/21 02:26:04;;;;;;;;;;;;;;;5.09;58.82;102248.72;5026297;28;6803;-71
2022/01/21 02:28:30;;;;;;;;;;;;;;;5.04;59.60;102245.72;5026031;28;7204;-71
2022/01/21 02:30:59;;;;;;;;;;;;;;;5.04;59.31;102239.72;5004283;28;6838;-71
2022/01/21 02:33:26;;;;;;;;;;;;;;;5.05;59.59;102246.59;5010046;28;6824;-71
2022/01/21 02:35:53;;;;;;;;;;;;;;;5.07;59.98;102245.09;5025957;28;6812;-71
2022/01/21 02:38:19;;;;;;;;;;;;;;;5.11;60.08;102248.09;5003668;28;7247;-70
2022/01/21 02:40:45;;;;;;;;;;;;;;;5.14;59.84;102243.34;5040125;28;6807;-70
2022/01/21 02:43:12;;;;;;;;;;;;;;;5.19;60.23;102255.59;5025333;28;8606;-70
2022/01/21 02:45:44;;;;;;;;;;;;;;;5.22;60.02;102255.94;5010011;28;6875;-71
2022/01/21 02:48:10;;;;;;;;;;;;;;;5.23;59.92;102255.19;4993375;28;7192;-71
2022/01/21 02:50:36;;;;;;;;;;;;;;;5.24;59.47;102256.97;5025189;28;7035;-71
2022/01/21 02:53:25;;;;;;;;;;;;;;;5.24;60.13;102255.31;5026901;28;7106;-70
2022/01/21 02:55:51;;;;;;;;;;;;;;;5.25;59.45;102253.69;5026631;28;6823;-70
2022/01/21 02:58:17;;;;;;;;;;;;;;;5.24;59.96;102251.88;4993836;28;6998;-71
2022/01/21 03:00:44;;;;;;;;;;;;;;;5.22;60.08;102261.00;5028688;28;6936;-71
2022/01/21 03:03:10;;;;;;;;;;;;;;;5.21;59.71;102266.81;5029926;28;7629;-71
2022/01/21 03:05:38;;;;;;;;;;;;;;;5.22;59.67;102261.00;5035002;28;6974;-71
2022/01/21 03:08:06;;;;;;;;;;;;;;;5.22;59.92;102271.19;5010978;28;8843;-71
2022/01/21 03:10:32;;;;;;;;;;;;;;;5.21;60.08;102274.44;5034114;28;8013;-71
2022/01/21 03:12:58;;;;;;;;;;;;;;;5.21;59.75;102269.34;5016520;28;6989;-71
2022/01/21 03:15:23;;;;;;;;;;;;;;;5.22;60.38;102271.19;5012473;28;6799;-71
2022/01/21 03:17:50;;;;;;;;;;;;;;;5.25;59.74;102272.34;5029544;28;7008;-71
2022/01/21 03:20:16;;;;;;;;;;;;;;;5.28;59.81;102264.16;5032058;28;7119;-70
2022/01/21 03:22:41;;;;;;;;;;;;;;;5.27;59.91;102275.06;4992655;28;7424;-71
2022/01/21 03:25:08;;;;;;;;;;;;;;;5.24;59.72;102269.69;5011312;28;6922;-71
2022/01/21 03:27:34;;;;;;;;;;;;;;;5.20;59.46;102271.03;5003478;28;7507;-71
2022/01/21 03:30:03;;;;;;;;;;;;;;;5.13;59.29;102268.59;5015666;28;7238;-71
2022/01/21 03:32:29;;;;;;;;;;;;;;;5.05;58.74;102272.94;5000364;28;6820;-71
2022/01/21 03:34:54;;;;;;;;;;;;;;;5.00;59.39;102279.19;5032216;28;7124;-71
2022/01/21 03:37:20;;;;;;;;;;;;;;;4.93;59.88;102272.59;5014416;28;6885;-70
2022/01/21 03:39:46;;;;;;;;;;;;;;;4.92;60.45;102269.88;5014971;28;6898;-70
2022/01/21 03:42:12;;;;;;;;;;;;;;;4.92;60.15;102269.88;5001342;28;7233;-70
2022/01/21 03:44:38;;;;;;;;;;;;;;;4.93;59.79;102262.41;5014989;28;6776;-70
2022/01/21 03:47:04;;;;;;;;;;;;;;;4.94;60.10;102260.78;5032011;28;6812;-70
2022/01/21 03:49:37;;;;;;;;;;;;;;;4.93;60.20;102270.03;5014747;28;9531;-70
2022/01/21 03:52:06;;;;;;;;;;;;;;;4.89;59.57;102272.13;5031156;28;7026;-70
2022/01/21 03:54:32;;;;;;;;;;;;;;;4.84;59.78;102267.47;5014271;28;7327;-70
2022/01/21 03:56:59;;;;;;;;;;;;;;;4.81;59.38;102269.69;5034350;28;8173;-70
2022/01/21 03:59:25;;;;;;;;;;;;;;;4.79;59.54;102270.31;5015236;28;6807;-70
2022/01/21 04:01:50;;;;;;;;;;;;;;;4.74;59.12;102264.75;5013512;28;8612;-70
2022/01/21 04:04:16;;;;;;;;;;;;;;;4.72;60.32;102267.13;4993748;28;7221;-70
2022/01/21 04:06:42;;;;;;;;;;;;;;;4.71;60.58;102274.59;5010905;28;7136;-70
2022/01/21 04:09:08;;;;;;;;;;;;;;;4.72;60.34;102271.31;4995133;28;7016;-70
2022/01/21 04:11:33;;;;;;;;;;;;;;;4.72;60.41;102269.66;5027258;28;7422;-70
2022/01/21 04:13:59;;;;;;;;;;;;;;;4.75;60.26;102270.72;4998031;28;7029;-70
2022/01/21 04:16:24;;;;;;;;;;;;;;;4.78;60.35;102278.63;4995246;28;6992;-70
2022/01/21 04:18:50;;;;;;;;;;;;;;;4.80;59.82;102269.56;5027395;28;7801;-70
2022/01/21 04:21:16;;;;;;;;;;;;;;;4.78;60.44;102269.41;5011935;28;6878;-70
2022/01/21 04:23:42;;;;;;;;;;;;;;;4.77;59.56;102274.31;5028877;28;6784;-70
2022/01/21 04:26:07;;;;;;;;;;;;;;;4.75;59.40;102275.81;5025730;28;7311;-70
2022/01/21 04:28:33;;;;;;;;;;;;;;;4.72;59.71;102276.38;5023788;28;7146;-70
2022/01/21 04:31:00;;;;;;;;;;;;;;;4.71;60.09;102279.66;5007469;28;6804;-70
2022/01/21 04:33:26;;;;;;;;;;;;;;;4.73;60.18;102280.72;5027840;28;7251;-70
2022/01/21 04:35:51;;;;;;;;;;;;;;;4.75;60.58;102281.78;5007209;28;8342;-70
2022/01/21 04:38:21;;;;;;;;;;;;;;;4.78;60.37;102281.19;5009959;28;6792;-70
2022/01/21 04:40:54;;;;;;;;;;;;;;;4.82;60.09;102278.22;5012817;28;7300;-70
2022/01/21 04:48:49;;;;;;;;;;;;;;;4.90;60.59;102276.47;5027072;28;6996;-70
2022/01/21 04:51:18;;;;;;;;;;;;;;;4.93;59.86;102271.69;5028207;28;6807;-70
2022/01/21 04:53:47;;;;;;;;;;;;;;;4.93;60.43;102274.25;5005266;28;7607;-70
2022/01/21 04:56:14;;;;;;;;;;;;;;;4.90;59.85;102281.53;5008024;28;7106;-70
2022/01/21 04:58:42;;;;;;;;;;;;;;;4.85;59.31;102281.06;5042489;28;6874;-70
2022/01/21 05:01:09;;;;;;;;;;;;;;;4.80;59.80;102280.59;5026243;28;7132;-70
2022/01/21 05:03:39;;;;;;;;;;;;;;;4.76;60.00;102286.13;5010483;28;6989;-70
2022/01/21 05:06:05;;;;;;;;;;;;;;;4.72;59.65;102287.44;5014360;28;6831;-70
2022/01/21 05:08:41;;;;;;;;;;;;;;;4.68;59.48;102289.53;5009023;28;7907;-70
2022/01/21 05:11:08;;;;;;;;;;;;;;;4.66;60.29;102291.00;5005747;28;6901;-70
2022/01/21 05:13:41;;;;;;;;;;;;;;;4.63;60.17;102280.53;5028936;28;6804;-70
2022/01/21 05:16:46;;;;;;;;;;;;;;;4.61;59.25;102288.00;4982380;28;8767;-70
2022/01/21 05:19:13;;;;;;;;;;;;;;;4.57;59.36;102281.72;5038226;28;7356;-70
2022/01/21 05:21:38;;;;;;;;;;;;;;;4.54;59.72;102275.41;5006631;28;7223;-70
2022/01/21 05:24:05;;;;;;;;;;;;;;;4.52;60.19;102275.25;5026693;28;6775;-70
2022/01/21 05:26:36;;;;;;;;;;;;;;;4.50;59.90;102274.19;5013015;28;7271;-70
2022/01/21 05:29:11;;;;;;;;;;;;;;;4.48;59.86;102283.31;5031036;28;6804;-70
2022/01/21 05:31:37;;;;;;;;;;;;;;;4.47;59.81;102284.03;4987419;28;6868;-70
2022/01/21 05:34:03;;;;;;;;;;;;;;;4.47;60.55;102284.03;5020858;28;6807;-70
2022/01/21 05:36:31;;;;;;;;;;;;;;;4.48;60.96;102288.38;5028654;28;6998;-70
2022/01/21 05:38:59;;;;;;;;;;;;;;;4.49;60.24;102286.72;5027783;28;9062;-70
2022/01/21 05:41:25;;;;;;;;;;;;;;;4.50;59.87;102283.47;5010764;28;7097;-70
2022/01/21 05:44:00;;;;;;;;;;;;;;;4.53;60.34;102283.78;5028955;28;6811;-70
2022/01/21 05:46:40;;;;;;;;;;;;;;;4.55;60.12;102288.28;5022504;28;7575;-70
2022/01/21 05:49:06;;;;;;;;;;;;;;;4.59;60.97;102287.84;5028177;28;7229;-70
2022/01/21 05:51:32;;;;;;;;;;;;;;;4.63;60.83;102291.59;5006708;28;6819;-70
2022/01/21 05:53:57;;;;;;;;;;;;;;;4.64;60.69;102300.13;5009094;28;6800;-70
2022/01/21 05:56:25;;;;;;;;;;;;;;;4.65;59.96;102296.84;5011522;28;6804;-70
2022/01/21 05:58:52;;;;;;;;;;;;;;;4.63;60.41;102300.84;5026066;28;6994;-70
2022/01/21 06:01:18;;;;;;;;;;;;;;;4.60;59.68;102304.00;5010326;28;6816;-70
2022/01/21 06:03:44;;;;;;;;;;;;;;;4.54;60.30;102299.19;5007065;28;6800;-70
2022/01/21 06:06:10;;;;;;;;;;;;;;;4.50;60.37;102286.91;5005378;28;6800;-70
2022/01/21 06:08:40;;;;;;;;;;;;;;;4.47;59.75;102285.66;5027545;28;6960;-70
2022/01/21 06:11:06;;;;;;;;;;;;;;;4.43;59.88;102298.06;5024681;28;8724;-70
2022/01/21 06:13:32;;;;;;;;;;;;;;;4.39;60.03;102290.84;5032432;28;7828;-70
2022/01/21 06:15:59;;;;;;;;;;;;;;;4.36;59.83;102290.53;5012529;28;6903;-70
2022/01/21 06:18:26;;;;;;;;;;;;;;;4.33;60.38;102291.88;5010000;28;6803;-70
2022/01/21 06:20:52;;;;;;;;;;;;;;;4.31;60.85;102300.22;5012787;28;6960;-70
2022/01/21 06:23:18;;;;;;;;;;;;;;;4.29;59.95;102301.72;5015305;28;6907;-70
2022/01/21 06:25:45;;;;;;;;;;;;;;;4.27;60.44;102295.59;5028077;28;7219;-70
2022/01/21 06:28:11;;;;;;;;;;;;;;;4.26;60.83;102297.94;5030679;28;7081;-70
2022/01/21 06:30:38;;;;;;;;;;;;;;;4.24;60.44;102299.44;4999276;28;7120;-70
2022/01/21 06:33:04;;;;;;;;;;;;;;;4.24;60.28;102305.41;5015123;28;7079;-70
2022/01/21 06:35:30;;;;;;;;;;;;;;;4.23;60.53;102308.69;5012587;28;7807;-70
2022/01/21 06:37:56;;;;;;;;;;;;;;;4.21;60.34;102315.25;5008295;28;7171;-70
2022/01/21 06:40:22;;;;;;;;;;;;;;;4.20;60.44;102315.06;4999156;28;7698;-70
2022/01/21 06:42:51;;;;;;;;;;;;;;;4.19;60.18;102320.88;5013143;28;7213;-70
2022/01/21 06:45:18;;;;;;;;;;;;;;;4.17;59.98;102328.38;5032618;28;7058;-70
2022/01/21 06:47:44;;;;;;;;;;;;;;;4.15;60.85;102327.28;5012387;28;7030;-70
2022/01/21 06:50:10;;;;;;;;;;;;;;;4.14;61.31;102333.09;5032506;28;6791;-70
2022/01/21 06:52:36;;;;;;;;;;;;;;;4.14;60.58;102328.03;5018207;28;6795;-70
2022/01/21 06:55:04;;;;;;;;;;;;;;;4.15;60.42;102339.97;5031900;28;6816;-70
2022/01/21 06:57:30;;;;;;;;;;;;;;;4.14;60.87;102344.16;5016977;28;7417;-70
2022/01/21 06:59:57;;;;;;;;;;;;;;;4.16;61.11;102347.75;5030070;28;6909;-70
2022/01/21 07:02:22;;;;;;;;;;;;;;;4.19;61.38;102349.72;5016921;28;7332;-70
2022/01/21 07:04:49;;;;;;;;;;;;;;;4.22;60.46;102350.03;5014342;28;6934;-70
2022/01/21 07:07:16;;;;;;;;;;;;;;;4.27;61.49;102350.53;4992235;28;6819;-70
2022/01/21 07:09:43;;;;;;;;;;;;;;;4.33;60.76;102340.09;5029940;28;6811;-70
2022/01/21 07:12:10;;;;;;;;;;;;;;;4.37;61.30;102345.66;5009998;28;7057;-70
2022/01/21 07:14:35;;;;;;;;;;;;;;;4.42;60.99;102354.66;5032017;28;7382;-70
2022/01/21 07:17:02;;;;;;;;;;;;;;;4.42;61.60;102349.59;4996398;28;6898;-70
2022/01/21 07:19:28;;;;;;;;;;;;;;;4.44;61.28;102359.88;5023448;28;6907;-70
2022/01/21 07:21:53;;;;;;;;;;;;;;;4.43;60.45;102358.09;5041997;28;7037;-70
2022/01/21 07:24:19;;;;;;;;;;;;;;;4.40;61.39;102346.00;5040434;28;6879;-70
2022/01/21 07:26:45;;;;;;;;;;;;;;;4.40;60.73;102353.63;5023285;28;7019;-70
2022/01/21 07:29:11;;;;;;;;;;;;;;;4.38;60.68;102354.19;5021521;28;7848;-70
2022/01/21 07:31:36;;;;;;;;;;;;;;;4.36;60.39;102360.75;5025570;28;7958;-70
2022/01/21 07:34:05;;;;;;;;;;;;;;;4.33;60.37;102362.94;5041416;28;7218;-70
2022/01/21 07:36:33;;;;;;;;;;;;;;;4.30;60.82;102356.81;5040911;28;6866;-70
2022/01/21 07:39:00;;;;;;;;;;;;;;;4.29;61.05;102360.09;5021131;28;6828;-70
2022/01/21 07:41:26;;;;;;;;;;;;;;;4.30;60.43;102356.81;4999583;28;7356;-70
2022/01/21 07:43:53;;;;;;;;;;;;;;;4.31;61.16;102352.66;5024714;28;6875;-70
2022/01/21 07:46:20;;;;;;;;;;;;;;;4.30;61.62;102351.75;5022521;28;6812;-70
2022/01/21 07:48:46;;;;;;;;;;;;;;;4.31;60.35;102363.69;5032983;28;6884;-70
2022/01/21 07:51:12;;;;;;;;;;;;;;;4.34;61.43;102367.28;5032994;28;6891;-70
2022/01/21 07:53:37;;;;;;;;;;;;;;;4.35;61.64;102372.53;5010850;28;6815;-70
2022/01/21 07:56:04;;;;;;;;;;;;;;;4.39;60.73;102366.16;5012801;28;6848;-70
2022/01/21 07:58:31;;;;;;;;;;;;;;;4.46;61.97;102368.59;5008486;28;7139;-71
2022/01/21 08:00:57;;;;;;;;;;;;;;;4.52;61.61;102368.31;5027424;28;11871;-70
2022/01/21 08:03:24;;;;;;;;;;;;;;;4.60;61.96;102380.19;5015470;28;7402;-70
2022/01/21 08:05:51;;;;;;;;;;;;;;;4.69;61.40;102386.22;5010770;28;9438;-70
2022/01/21 08:08:18;;;;;;;;;;;;;;;4.79;62.40;102390.59;5033744;28;7185;-70
2022/01/21 08:10:43;;;;;;;;;;;;;;;4.89;61.44;102383.94;5017211;28;6788;-70
2022/01/21 08:13:09;;;;;;;;;;;;;;;4.97;62.28;102389.06;5002634;28;7085;-70
2022/01/21 08:15:35;;;;;;;;;;;;;;;5.07;61.66;102392.53;5031898;28;6783;-70
2022/01/21 08:18:01;;;;;;;;;;;;;;;5.14;61.70;102395.88;5013780;28;6800;-70
2022/01/21 08:20:28;;;;;;;;;;;;;;;5.21;61.09;102392.31;5013498;28;6799;-70
2022/01/21 08:22:53;;;;;;;;;;;;;;;5.27;61.10;102392.03;5016083;28;7206;-70
2022/01/21 08:25:19;;;;;;;;;;;;;;;5.27;61.18;102385.31;5034382;28;6859;-70
2022/01/21 08:27:45;;;;;;;;;;;;;;;5.29;60.90;102390.53;5036298;28;8474;-70
2022/01/21 08:30:12;;;;;;;;;;;;;;;5.30;60.96;102384.69;5024285;28;7104;-70
2022/01/21 08:32:38;;;;;;;;;;;;;;;5.32;61.03;102380.69;5036103;28;7328;-70
2022/01/21 08:35:06;;;;;;;;;;;;;;;5.35;60.85;102368.28;5017232;28;7229;-70
2022/01/21 08:37:32;;;;;;;;;;;;;;;5.41;61.07;102375.63;5023360;28;6816;-70
2022/01/21 08:39:58;;;;;;;;;;;;;;;5.47;61.26;102367.72;5034534;28;7405;-70
2022/01/21 08:42:23;;;;;;;;;;;;;;;5.56;61.86;102371.16;5013701;28;6784;-70
2022/01/21 08:44:49;;;;;;;;;;;;;;;5.65;61.67;102368.63;4998590;28;7324;-70
2022/01/21 08:47:15;;;;;;;;;;;;;;;5.73;61.09;102370.31;5030671;28;6870;-71
2022/01/21 08:49:44;;;;;;;;;;;;;;;5.80;61.02;102376.91;5020062;28;7194;-70
2022/01/21 08:52:18;;;;;;;;;;;;;;;5.85;60.98;102370.63;5014721;28;6815;-70
2022/01/21 08:54:46;;;;;;;;;;;;;;;5.90;60.96;102382.16;5015423;28;9934;-70
2022/01/21 08:57:11;;;;;;;;;;;;;;;5.92;60.69;102387.41;5015376;28;6902;-70
2022/01/21 08:59:37;;;;;;;;;;;;;;;5.92;60.61;102377.22;5009237;28;7765;-70
2022/01/21 09:02:03;;;;;;;;;;;;;;;5.89;60.29;102388.00;5012088;28;6791;-70
2022/01/21 09:04:29;;;;;;;;;;;;;;;5.87;60.84;102384.38;4992988;28;6819;-70
2022/01/21 09:06:54;;;;;;;;;;;;;;;5.88;60.42;102380.22;5010599;28;7071;-70
2022/01/21 09:09:20;;;;;;;;;;;;;;;5.89;60.81;102376.91;5038156;28;7100;-70
2022/01/21 09:11:46;;;;;;;;;;;;;;;5.92;60.92;102383.22;4997112;28;7871;-70
2022/01/21 09:14:12;;;;;;;;;;;;;;;6.00;60.63;102388.16;5011003;28;7118;-70
2022/01/21 09:16:39;;;;;;;;;;;;;;;6.02;61.17;102385.03;5014782;28;7241;-70
2022/01/21 09:19:05;;;;;;;;;;;;;;;6.09;60.49;102381.47;5005502;28;6796;-70
2022/01/21 09:21:35;;;;;;;;;;;;;;;6.14;60.84;102379.38;5031772;28;6937;-70
2022/01/21 09:24:04;;;;;;;;;;;;;;;6.22;61.11;102389.53;5015431;28;7931;-70
2022/01/21 09:26:29;;;;;;;;;;;;;;;6.30;61.38;102379.22;5005514;28;6867;-70
2022/01/21 09:28:58;;;;;;;;;;;;;;;6.37;60.52;102386.69;5035875;28;6958;-70
2022/01/21 09:31:25;;;;;;;;;;;;;;;6.43;60.76;102379.63;5022459;28;6899;-70
2022/01/21 09:33:51;;;;;;;;;;;;;;;6.47;60.68;102366.47;5003509;28;7094;-70
2022/01/21 09:36:19;;;;;;;;;;;;;;;6.50;60.45;102364.19;4998381;28;6796;-70
2022/01/21 09:38:46;;;;;;;;;;;;;;;6.52;60.05;102359.25;5010359;28;7108;-70
2022/01/21 09:41:11;;;;;;;;;;;;;;;6.53;60.26;102364.50;5021628;28;7251;-70
2022/01/21 09:43:39;;;;;;;;;;;;;;;6.52;60.21;102367.78;5051048;28;6779;-70
2022/01/21 09:46:07;;;;;;;;;;;;;;;6.52;60.20;102372.88;5036843;28;7160;-70
2022/01/21 09:48:50;;;;;;;;;;;;;;;6.53;60.31;102387.41;5020829;28;6811;-70
2022/01/21 09:51:17;;;;;;;;;;;;;;;6.60;60.42;102382.91;5023336;28;6871;-70
2022/01/21 09:53:43;;;;;;;;;;;;;;;6.72;61.36;102389.19;5035694;28;6891;-70
2022/01/21 09:56:10;;;;;;;;;;;;;;;6.95;61.43;102396.47;4992920;28;7269;-70
2022/01/21 09:58:35;;;;;;;;;;;;;;;7.14;60.82;102390.56;4993267;28;7305;-70
2022/01/21 10:01:05;;;;;;;;;;;;;;;7.28;60.04;102388.38;5037064;28;6791;-70
2022/01/21 10:03:33;;;;;;;;;;;;;;;7.32;59.70;102395.59;5030380;28;6823;-70
2022/01/21 10:06:09;;;;;;;;;;;;;;;7.32;59.63;102391.38;5017650;28;7060;-70
2022/01/21 10:08:39;;;;;;;;;;;;;;;7.33;59.94;102393.16;5025446;28;7086;-70
2022/01/21 10:11:05;;;;;;;;;;;;;;;7.35;59.45;102398.41;5018237;28;7038;-70
2022/01/21 10:13:32;;;;;;;;;;;;;;;7.39;59.50;102397.97;5036748;28;6993;-70
2022/01/21 10:15:57;;;;;;;;;;;;;;;7.44;60.70;102406.94;5031079;28;6819;-70
2022/01/21 10:18:23;;;;;;;;;;;;;;;7.64;60.85;102408.78;5005159;28;7349;-70
2022/01/21 10:21:02;;;;;;;;;;;;;;;8.25;60.87;102411.66;5029465;28;6855;-70
2022/01/21 10:23:33;;;;;;;;;;;;;;;8.85;59.93;102399.84;5032549;28;6812;-70
2022/01/21 10:26:01;;;;;;;;;;;;;;;9.19;58.56;102400.22;5010977;28;7928;-70
2022/01/21 10:28:27;;;;;;;;;;;;;;;9.36;58.41;102405.84;4994658;28;6977;-70
2022/01/21 10:31:16;;;;;;;;;;;;;;;9.44;57.95;102399.72;5018930;28;7836;-70
2022/01/21 10:34:04;;;;;;;;;;;;;;;9.45;57.49;102407.53;5011661;28;6812;-70
2022/01/21 10:36:34;;;;;;;;;;;;;;;9.41;56.98;102409.72;5037462;28;6812;-70
2022/01/21 10:39:12;;;;;;;;;;;;;;;9.35;57.41;102411.75;4999534;28;6975;-70
2022/01/21 10:41:45;;;;;;;;;;;;;;;9.29;57.47;102410.47;4996890;28;6815;-70
2022/01/21 10:44:14;;;;;;;;;;;;;;;9.25;56.60;102407.50;5016799;28;7161;-70
2022/01/21 10:46:49;;;;;;;;;;;;;;;9.24;56.52;102416.84;5037449;28;6823;-70
2022/01/21 10:49:17;;;;;;;;;;;;;;;9.24;56.89;102418.53;5038861;28;7000;-70
2022/01/21 10:51:51;;;;;;;;;;;;;;;9.23;57.06;102409.94;5020610;28;6930;-70
2022/01/21 10:54:29;;;;;;;;;;;;;;;9.26;57.11;102407.63;5020682;28;7155;-70
2022/01/21 10:57:18;;;;;;;;;;;;;;;9.33;57.99;102411.63;5020384;28;7166;-70
2022/01/21 10:59:58;;;;;;;;;;;;;;;9.43;57.26;102403.97;5017780;28;6838;-70
2022/01/21 11:02:49;;;;;;;;;;;;;;;9.61;56.63;102411.41;5039512;28;8107;-70
2022/01/21 11:05:23;;;;;;;;;;;;;;;9.74;56.71;102403.06;5023507;28;7720;-70
2022/01/21 11:08:00;;;;;;;;;;;;;;;9.80;57.06;102408.72;5038005;28;7660;-70
2022/01/21 11:10:32;;;;;;;;;;;;;;;9.80;56.43;102415.47;5021216;28;7899;-70
2022/01/21 11:13:03;;;;;;;;;;;;;;;9.75;56.15;102403.97;5022189;28;7045;-70
2022/01/21 11:15:40;;;;;;;;;;;;;;;9.70;56.59;102403.59;5023032;28;7027;-70
2022/01/21 11:18:10;;;;;;;;;;;;;;;9.67;56.06;102401.66;5042147;28;7255;-70
2022/01/21 11:20:40;;;;;;;;;;;;;;;9.67;56.03;102401.66;5006050;28;6807;-70
2022/01/21 11:23:08;;;;;;;;;;;;;;;9.65;55.21;102399.72;5025742;28;6883;-71
2022/01/21 11:25:56;;;;;;;;;;;;;;;9.59;56.63;102395.91;5023580;28;7896;-70
2022/01/21 11:28:27;;;;;;;;;;;;;;;9.54;56.10;102393.72;5023075;28;6804;-70
2022/01/21 11:30:54;;;;;;;;;;;;;;;9.55;56.28;102380.16;5019414;28;6812;-70
2022/01/21 11:33:22;;;;;;;;;;;;;;;9.58;56.32;102372.72;5022784;28;6800;-70
2022/01/21 11:35:50;;;;;;;;;;;;;;;9.63;56.39;102366.34;5051858;28;6897;-70
2022/01/21 11:38:19;;;;;;;;;;;;;;;9.69;56.96;102373.63;5017718;28;7065;-70
2022/01/21 11:40:47;;;;;;;;;;;;;;;9.72;56.07;102369.66;5023053;28;6888;-70
2022/01/21 11:43:14;;;;;;;;;;;;;;;9.69;55.12;102366.84;5018919;28;6980;-70
2022/01/21 11:46:06;;;;;;;;;;;;;;;9.67;56.35;102364.94;5023726;28;7273;-70
2022/01/21 11:48:51;;;;;;;;;;;;;;;9.64;55.83;102357.88;5026634;28;6831;-70
2022/01/21 11:51:26;;;;;;;;;;;;;;;9.67;56.21;102362.38;5020537;28;7404;-70
2022/01/21 11:54:05;;;;;;;;;;;;;;;9.72;56.15;102361.09;5037086;28;7162;-70
2022/01/21 11:56:55;;;;;;;;;;;;;;;9.78;56.27;102353.91;5032169;28;9537;-70
2022/01/21 11:59:32;;;;;;;;;;;;;;;9.84;56.13;102345.84;5015248;28;7265;-70
2022/01/21 12:02:15;;;;;;;;;;;;;;;9.83;56.11;102339.81;5016495;28;6819;-70
2022/01/21 12:04:54;;;;;;;;;;;;;;;9.86;55.95;102334.03;5003707;28;7027;-70
2022/01/21 12:07:44;;;;;;;;;;;;;;;9.89;55.88;102324.03;5041233;28;6823;-70
2022/01/21 12:10:21;;;;;;;;;;;;;;;10.05;55.83;102321.09;5036662;28;7250;-70
2022/01/21 12:12:57;;;;;;;;;;;;;;;10.38;56.15;102322.00;5036977;28;6992;-70
2022/01/21 12:21:03;;;;;;;;;;;;;;;11.70;53.62;102310.63;5029099;28;7287;-70
2022/01/21 12:23:31;;;;;;;;;;;;;;;11.81;53.04;102311.38;5012898;28;7043;-70
2022/01/21 12:26:09;;;;;;;;;;;;;;;11.81;52.80;102312.28;5014180;28;6811;-70
2022/01/21 12:28:53;;;;;;;;;;;;;;;11.74;52.68;102319.44;5034289;28;7048;-70
2022/01/21 12:31:23;;;;;;;;;;;;;;;11.58;52.41;102322.53;5017190;28;6804;-70
2022/01/21 12:33:53;;;;;;;;;;;;;;;11.41;52.71;102321.28;5039919;28;6969;-70
2022/01/21 12:36:23;;;;;;;;;;;;;;;11.29;52.95;102317.00;5039900;28;7407;-70
2022/01/21 12:41:17;;;;;;;;;;;;;;;11.16;53.14;102322.88;5016432;28;7413;-70
2022/01/21 12:43:56;;;;;;;;;;;;;;;11.11;53.41;102314.81;5015600;28;6938;-70
2022/01/21 12:46:36;;;;;;;;;;;;;;;11.04;53.42;102322.81;5044950;28;7261;-70
2022/01/21 12:49:31;;;;;;;;;;;;;;;10.94;52.76;102318.66;5039064;28;7432;-70
2022/01/21 12:57:30;;;;;;;;;;;;;;;10.52;53.22;102306.81;5021720;28;7146;-70
2022/01/21 13:00:00;;;;;;;;;;;;;;;10.44;53.25;102302.78;5011130;28;7848;-70
2022/01/21 13:02:29;;;;;;;;;;;;;;;10.38;53.64;102305.69;5018712;28;7339;-70
2022/01/21 13:05:18;;;;;;;;;;;;;;;10.30;53.87;102305.09;5021051;28;7285;-70
2022/01/21 13:08:44;;;;;;;;;;;;;;;10.25;54.29;102304.72;5036376;28;7475;-70
2022/01/21 13:11:18;;;;;;;;;;;;;;;10.24;54.38;102304.63;5025125;28;6839;-70
2022/01/21 13:13:51;;;;;;;;;;;;;;;10.25;54.44;102303.84;4991060;28;6887;-70
2022/01/21 13:16:29;;;;;;;;;;;;;;;10.24;54.14;102310.63;5010727;28;6974;-70
2022/01/21 13:19:08;;;;;;;;;;;;;;;10.22;54.40;102308.72;5031412;28;6815;-70
2022/01/21 13:21:35;;;;;;;;;;;;;;;10.20;54.59;102315.38;5016689;28;6812;-70
2022/01/21 13:24:15;;;;;;;;;;;;;;;10.15;53.95;102307.34;5017886;28;7789;-70
2022/01/21 13:26:43;;;;;;;;;;;;;;;10.12;54.79;102312.22;5010017;28;7205;-70
2022/01/21 13:29:12;;;;;;;;;;;;;;;10.09;54.20;102312.88;5032267;28;6887;-70
2022/01/21 13:31:46;;;;;;;;;;;;;;;10.05;53.97;102307.38;5007495;28;6796;-70
2022/01/21 13:34:36;;;;;;;;;;;;;;;9.97;54.39;102302.50;5036819;28;7192;-70
2022/01/21 13:37:04;;;;;;;;;;;;;;;9.89;54.80;102303.56;5017774;28;7289;-70
2022/01/21 13:39:33;;;;;;;;;;;;;;;9.81;54.46;102302.06;5005398;28;6804;-70
2022/01/21 13:42:07;;;;;;;;;;;;;;;9.69;54.66;102302.81;5039138;28;7054;-70
2022/01/21 13:44:45;;;;;;;;;;;;;;;9.58;54.96;102301.97;5010344;28;7090;-70
2022/01/21 13:47:32;;;;;;;;;;;;;;;9.48;56.34;102304.53;5014285;28;8365;-70
2022/01/21 13:50:09;;;;;;;;;;;;;;;9.39;55.63;102294.41;5024540;28;7653;-70
2022/01/21 13:52:43;;;;;;;;;;;;;;;9.34;56.43;102297.34;5025642;28;8516;-70
2022/01/21 13:55:25;;;;;;;;;;;;;;;9.29;56.25;102291.84;5029247;28;6828;-70
2022/01/21 13:57:51;;;;;;;;;;;;;;;9.26;57.64;102278.81;5014022;28;6824;-70
2022/01/21 14:00:41;;;;;;;;;;;;;;;9.25;57.61;102275.34;5031733;28;6811;-70
2022/01/21 14:03:09;;;;;;;;;;;;;;;9.24;57.33;102282.91;5006242;28;6832;-70
2022/01/21 14:05:43;;;;;;;;;;;;;;;9.22;57.67;102277.66;5035654;28;7083;-70